< < Back
Terminal Aerodrome Forecast


Current Version              Previous Versions:   1  2  3  4  5  6  7  8  9  

Terminal Aerodrome Forecast

611
FTUS42 KFFC 182300
TAFCSG
TAF
KCSG 182320Z 1900/1924 35006KT P6SM SCT250
     FM191500 06005KT P6SM FEW250=



Latest METAR

813
SAUS70 KWBC 200300
MTRCSG
METAR KCSG 200251Z AUTO 00000KT 10SM CLR 15/11 A3010 RMK AO2 SLP190
T01500106 53009


USA.gov is the U.S. government's official web portal to all federal, state and local government web resources and services.